| time (UTC) | temp C | wind direction | speed KPH | gust KPH | rain 1hr cm | rain 24hr cm | rain mn cm | humidity % | barometer mb |
| 20260906051521 | 19 | 36 | 0.0 | 0.0 | 0.00 | 0.13 | 0.00 | 97 | 1013.7 |
| 20260906050016 | 19 | 36 | 0.0 | 0.0 | 0.00 | 0.13 | 0.00 | 97 | 1013.9 |
| 20260906044514 | 19 | 35 | 0.0 | 0.0 | 0.00 | 0.13 | 0.00 | 98 | 1014.0 |
| 20260906043016 | 19 | 36 | 0.0 | 0.0 | 0.00 | 0.13 | 0.00 | 98 | 1013.7 |
| 20260906041512 | 19 | 34 | 0.0 | 0.0 | 0.00 | 0.13 | 0.00 | 98 | 1013.5 |
| 20260906040009 | 19 | 35 | 0.0 | 0.0 | 0.00 | 0.13 | 0.00 | 98 | 1013.6 |
| 20260906034508 | 20 | 36 | 0.0 | 0.0 | 0.00 | 0.13 | 0.13 | 98 | 1014.1 |
| 20260906033008 | 20 | 36 | 0.0 | 0.0 | 0.00 | 0.13 | 0.13 | 98 | 1014.1 |
| 20260906031510 | 20 | 35 | 0.0 | 0.0 | 0.00 | 0.13 | 0.13 | 98 | 1014.5 |
| 20260906030007 | 20 | 34 | 0.0 | 0.0 | 0.00 | 0.13 | 0.13 | 98 | 1014.4 |
| 20260906024506 | 20 | 33 | 0.0 | 0.0 | 0.00 | 0.13 | 0.13 | 98 | 1014.1 |
| 20260906023005 | 20 | 34 | 0.0 | 0.0 | 0.00 | 0.13 | 0.13 | 97 | 1014.0 |
| 20260906021505 | 20 | 33 | 0.0 | 0.0 | 0.00 | 0.13 | 0.13 | 98 | 1013.6 |
| 20260906020004 | 20 | 32 | 0.0 | 0.0 | 0.00 | 0.13 | 0.13 | 97 | 1013.5 |
| 20260906014504 | 20 | 32 | 0.0 | 0.0 | 0.00 | 0.13 | 0.13 | 97 | 1013.4 |
| 20260906013004 | 20 | 29 | 0.0 | 0.0 | 0.00 | 0.13 | 0.13 | 97 | 1013.3 |
| 20260906011502 | 20 | 28 | 0.0 | 0.0 | 0.00 | 0.13 | 0.13 | 97 | 1013.1 |
| 20260906010002 | 21 | 27 | 0.0 | 0.0 | 0.00 | 0.13 | 0.13 | 96 | 1013.0 |
| 20260906004612 | 21 | 28 | 0.0 | 0.0 | 0.00 | 0.13 | 0.13 | 96 | 1012.8 |
| 20260906003104 | 21 | 28 | 0.0 | 1.6 | 0.00 | 0.13 | 0.13 | 95 | 1012.5 |
| 20260906001600 | 21 | 24 | 0.0 | 6.4 | 0.00 | 0.13 | 0.13 | 94 | 1012.4 |
| 20260906000107 | 22 | 24 | 0.0 | 0.0 | 0.00 | 0.13 | 0.13 | 94 | 1012.4 |
| 20260905234602 | 22 | 27 | 0.0 | 6.4 | 0.00 | 0.13 | 0.13 | 93 | 1012.3 |
| 20260905233059 | 22 | 156 | 0.0 | 0.0 | 0.00 | 0.13 | 0.13 | 92 | 1012.1 |
| 20260905231558 | 23 | 165 | 0.0 | 0.0 | 0.00 | 0.13 | 0.13 | 90 | 1011.9 |
| 20260905230057 | 23 | 167 | 0.0 | 0.0 | 0.00 | 0.13 | 0.13 | 87 | 1011.9 |
| 20260905224605 | 24 | 167 | 0.0 | 8.0 | 0.00 | 0.13 | 0.13 | 86 | 1011.8 |
| 20260905223055 | 24 | 224 | 0.0 | 11.3 | 0.00 | 0.13 | 0.13 | 85 | 1011.8 |
| 20260905221555 | 23 | 154 | 1.6 | 9.7 | 0.00 | 0.13 | 0.13 | 85 | 1011.8 |
| 20260905220058 | 23 | 230 | 4.8 | 11.3 | 0.00 | 0.13 | 0.13 | 87 | 1011.8 |
| 20260905214553 | 23 | 232 | 4.8 | 11.3 | 0.00 | 0.13 | 0.13 | 88 | 1011.9 |
| 20260905213053 | 23 | 194 | 4.8 | 14.5 | 0.00 | 0.13 | 0.13 | 86 | 1012.0 |
| 20260905211551 | 23 | 211 | 3.2 | 9.7 | 0.00 | 0.13 | 0.13 | 92 | 1012.1 |
| 20260905210049 | 23 | 238 | 3.2 | 8.0 | 0.00 | 0.13 | 0.13 | 92 | 1012.4 |
| 20260905204548 | 22 | 250 | 3.2 | 8.0 | 0.00 | 0.13 | 0.13 | 97 | 1012.4 |
| 20260905203047 | 22 | 213 | 3.2 | 11.3 | 0.00 | 0.13 | 0.13 | 99 | 1012.6 |
| 20260905201546 | 21 | 249 | 1.6 | 6.4 | 0.00 | 0.13 | 0.13 | 100 | 1012.8 |
| 20260905200051 | 21 | 302 | 0.0 | 0.0 | 0.00 | 0.13 | 0.13 | 99 | 1013.1 |
| 20260905194543 | 21 | 288 | 0.0 | 9.7 | 0.00 | 0.13 | 0.13 | 99 | 1013.0 |
| 20260905193043 | 20 | 21 | 0.0 | 6.4 | 0.00 | 0.13 | 0.13 | 98 | 1012.8 |
| 20260905191546 | 20 | 360 | 0.0 | 6.4 | 0.00 | 0.13 | 0.13 | 98 | 1013.2 |
| 20260905190049 | 20 | 360 | 0.0 | 11.3 | 0.00 | 0.13 | 0.13 | 98 | 1013.0 |
| 20260905184552 | 20 | 21 | 0.0 | 8.0 | 0.08 | 0.13 | 0.13 | 98 | 1013.4 |
| 20260905183046 | 20 | 360 | 1.6 | 9.7 | 0.13 | 0.13 | 0.13 | 96 | 1013.6 |
| 20260905181539 | 21 | 28 | 4.8 | 16.1 | 0.13 | 0.13 | 0.13 | 94 | 1013.8 |
| 20260905180036 | 22 | 13 | 0.0 | 8.0 | 0.13 | 0.13 | 0.13 | 92 | 1013.6 |
| 20260905174535 | 24 | 14 | 9.7 | 25.7 | 0.05 | 0.05 | 0.05 | 87 | 1014.6 |
| 20260905173035 | 27 | 49 | 8.0 | 20.9 | 0.00 | 0.00 | 0.00 | 76 | 1013.7 |
| 20260905171536 | 27 | 48 | 4.8 | 11.3 | 0.00 | 0.00 | 0.00 | 75 | 1013.7 |
| 20260905170030 | 27 | 330 | 9.7 | 19.3 | 0.00 | 0.00 | 0.00 | 79 | 1013.5 |
| 20260905164535 | 27 | 355 | 3.2 | 8.0 | 0.00 | 0.00 | 0.00 | 79 | 1013.6 |
| 20260905163028 | 27 | 69 | 4.8 | 12.9 | 0.00 | 0.00 | 0.00 | 80 | 1013.7 |
| 20260905161526 | 27 | 309 | 1.6 | 9.7 | 0.00 | 0.00 | 0.00 | 80 | 1014.1 |
| 20260905160021 | 26 | 146 | 1.6 | 6.4 | 0.00 | 0.00 | 0.00 | 87 | 1014.3 |
| 20260905154518 | 25 | 198 | 0.0 | 3.2 | 0.00 | 0.00 | 0.00 | 88 | 1014.4 |
| 20260905153015 | 25 | 209 | 1.6 | 11.3 | 0.00 | 0.00 | 0.00 | 90 | 1014.3 |
| 20260905151512 | 24 | 207 | 6.4 | 9.7 | 0.00 | 0.00 | 0.00 | 93 | 1014.2 |
| 20260905150007 | 23 | 186 | 1.6 | 6.4 | 0.00 | 0.00 | 0.00 | 94 | 1014.2 |
| 20260905144502 | 23 | 215 | 4.8 | 11.3 | 0.00 | 0.00 | 0.00 | 97 | 1014.2 |
| 20260905143058 | 22 | 225 | 4.8 | 8.0 | 0.00 | 0.00 | 0.00 | 98 | 1014.4 |
| 20260905141557 | 21 | 238 | 0.0 | 0.0 | 0.00 | 0.00 | 0.00 | 99 | 1014.5 |
| 20260905140104 | 21 | 230 | 0.0 | 3.2 | 0.00 | 0.00 | 0.00 | 99 | 1014.5 |
| 20260905134551 | 21 | 220 | 0.0 | 3.2 | 0.00 | 0.00 | 0.00 | 100 | 1014.6 |
| 20260905133050 | 20 | 346 | 0.0 | 0.0 | 0.00 | 0.00 | 0.00 | 100 | 1014.8 |
| 20260905131603 | 20 | 188 | 0.0 | 0.0 | 0.00 | 0.00 | 0.00 | 100 | 1014.9 |
| 20260905130051 | 19 | 38 | 0.0 | 0.0 | 0.00 | 0.00 | 0.00 | 100 | 1015.1 |
| 20260905124548 | 19 | 31 | 0.0 | 0.0 | 0.00 | 0.00 | 0.00 | 100 | 1015.1 |
| 20260905123043 | -17 | 143 | 0.0 | 0.0 | 0.00 | 0.00 | 0.00 | 1015.0 | |
| 20260905121540 | -17 | 143 | 0.0 | 0.0 | 0.00 | 0.00 | 0.00 | 1014.8 | |
| 20260905120040 | -17 | 143 | 0.0 | 0.0 | 0.00 | 0.00 | 0.00 | 1014.8 | |
| 20260905114531 | -17 | 143 | 0.0 | 1.6 | 0.00 | 0.00 | 0.00 | 1014.6 | |
| 20260905113026 | -17 | 146 | 0.0 | 0.0 | 0.00 | 0.00 | 0.00 | 1014.6 | |
| 20260905111542 | -17 | 146 | 0.0 | 0.0 | 0.00 | 0.00 | 0.00 | 1014.2 | |
| 20260905110017 | -17 | 145 | 0.0 | 0.0 | 0.00 | 0.00 | 0.00 | 1014.2 | |
| 20260905104513 | -17 | 145 | 0.0 | 0.0 | 0.00 | 0.00 | 0.00 | 1014.1 | |
| 20260905103015 | -17 | 145 | 0.0 | 0.0 | 0.00 | 0.00 | 0.00 | 1013.8 | |
| 20260905101505 | -17 | 145 | 0.0 | 0.0 | 0.00 | 0.00 | 0.00 | 1013.6 | |
| 20260905100101 | -17 | 145 | 0.0 | 0.0 | 0.00 | 0.00 | 0.00 | 1013.6 | |
| 20260905094557 | -17 | 145 | 0.0 | 0.0 | 0.00 | 0.00 | 0.00 | 1013.7 | |
| 20260905093052 | -17 | 145 | 0.0 | 0.0 | 0.00 | 0.00 | 0.00 | 1013.8 | |
| 20260905091550 | 20 | 145 | 0.0 | 0.0 | 0.00 | 0.00 | 0.00 | 96 | 1013.6 |
| 20260905090047 | 20 | 145 | 0.0 | 0.0 | 0.00 | 0.00 | 0.00 | 96 | 1013.7 |
| 20260905084545 | 20 | 145 | 0.0 | 0.0 | 0.00 | 0.00 | 0.00 | 96 | 1013.8 |
| 20260905083045 | 20 | 145 | 0.0 | 0.0 | 0.00 | 0.00 | 0.00 | 95 | 1014.0 |
| 20260905081544 | 20 | 145 | 0.0 | 0.0 | 0.00 | 0.00 | 0.00 | 95 | 1013.9 |
| 20260905080042 | 20 | 145 | 0.0 | 0.0 | 0.00 | 0.00 | 0.00 | 95 | 1014.0 |
| 20260905074546 | 21 | 145 | 0.0 | 0.0 | 0.00 | 0.00 | 0.00 | 94 | 1014.1 |
| 20260905073055 | 21 | 145 | 0.0 | 0.0 | 0.00 | 0.00 | 0.00 | 94 | 1014.2 |
| 20260905071544 | 21 | 31 | 0.0 | 0.0 | 0.00 | 0.00 | 0.00 | 94 | 1014.2 |
| 20260905070037 | 21 | 30 | 0.0 | 0.0 | 0.00 | 0.00 | 0.00 | 95 | 1014.4 |
| 20260905064537 | 21 | 30 | 0.0 | 0.0 | 0.00 | 0.00 | 0.00 | 95 | 1014.4 |
| 20260905063035 | 21 | 29 | 0.0 | 0.0 | 0.00 | 0.00 | 0.00 | 94 | 1014.5 |
| 20260905061533 | 21 | 30 | 0.0 | 0.0 | 0.00 | 0.00 | 0.00 | 95 | 1014.5 |
| 20260905060036 | 21 | 29 | 0.0 | 0.0 | 0.00 | 0.00 | 0.00 | 95 | 1014.8 |
| 20260905054540 | 21 | 28 | 0.0 | 0.0 | 0.00 | 0.00 | 0.00 | 95 | 1015.1 |
| 20260905053028 | 21 | 28 | 0.0 | 0.0 | 0.00 | 0.00 | 0.00 | 95 | 1015.1 |